Terminal Aerodrome Forecast
Issued by NWS Northern Indiana

Home | Current Version | Previous Version | Text Only | Print | Product List | Glossary Off
Versions: 1 2 3 4 5 6 7 8 9 10 11 12 13 14 15

000
FTUS43 KIWX 201100 RRA
TAFFWA
TAF
KFWA 201141Z 2012/2112 25014KT P6SM FEW035
     FM201400 26016G24KT P6SM BKN035
     FM202300 27010KT P6SM SCT040=

USA.gov is the U.S. government's official web portal to all federal, state and local government web resources and services.